createdAt,value
2018-06-11T00:00:15.351Z,19.06
2018-06-11T00:02:49.568Z,19.05
2018-06-11T00:05:18.668Z,19.08
2018-06-11T00:07:47.764Z,19.08
2018-06-11T00:10:17.476Z,19.05
2018-06-11T00:12:46.617Z,19.03
2018-06-11T00:15:16.698Z,19.00
2018-06-11T00:17:45.802Z,18.97
2018-06-11T00:20:14.940Z,18.96
2018-06-11T00:22:44.850Z,18.93
2018-06-11T00:25:14.988Z,18.88
2018-06-11T00:27:44.948Z,18.88
2018-06-11T00:30:14.883Z,18.83
2018-06-11T00:32:44.954Z,18.84
2018-06-11T00:35:14.941Z,18.84
2018-06-11T00:37:45.005Z,18.82
2018-06-11T00:40:14.956Z,18.77
2018-06-11T00:42:44.953Z,18.71
2018-06-11T00:45:15.684Z,18.69
2018-06-11T00:47:44.904Z,18.67
2018-06-11T00:50:14.974Z,18.63
2018-06-11T00:52:44.973Z,18.60
2018-06-11T00:55:18.882Z,18.52
2018-06-11T00:57:48.006Z,18.44
2018-06-11T01:00:17.157Z,18.47
2018-06-11T01:02:47.164Z,18.42
2018-06-11T01:05:21.277Z,18.37
2018-06-11T01:07:50.420Z,18.36
2018-06-11T01:10:19.470Z,18.34
2018-06-11T01:12:48.642Z,18.36
2018-06-11T01:15:17.858Z,18.37
2018-06-11T01:17:46.992Z,18.35
2018-06-11T01:20:19.510Z,18.36
2018-06-11T01:22:48.632Z,18.31
2018-06-11T01:25:17.740Z,18.29
2018-06-11T01:27:46.812Z,18.27
2018-06-11T01:30:16.032Z,18.22
2018-06-11T01:32:45.224Z,18.24
2018-06-11T01:35:15.283Z,18.24
2018-06-11T01:37:46.306Z,18.21
2018-06-11T01:40:15.491Z,18.17
2018-06-11T01:42:45.530Z,18.12
2018-06-11T01:45:15.361Z,18.06
2018-06-11T01:47:45.383Z,17.95
2018-06-11T01:50:15.349Z,17.94
2018-06-11T01:52:45.409Z,17.92
2018-06-11T01:55:15.461Z,17.90
2018-06-11T01:57:45.512Z,17.89
2018-06-11T02:00:15.489Z,17.89
2018-06-11T02:02:45.540Z,17.90
2018-06-11T02:05:15.509Z,17.90
2018-06-11T02:07:47.164Z,17.88
2018-06-11T02:10:19.842Z,17.84
2018-06-11T02:12:49.001Z,17.81
2018-06-11T02:15:18.158Z,17.81
2018-06-11T02:17:47.279Z,17.82
2018-06-11T02:20:16.431Z,17.83
2018-06-11T02:22:45.585Z,17.83
2018-06-11T02:25:15.751Z,17.82
2018-06-11T02:27:45.615Z,17.85
2018-06-11T02:30:15.618Z,17.83
2018-06-11T02:32:45.737Z,17.83
2018-06-11T02:35:15.711Z,17.81
2018-06-11T02:37:45.650Z,17.74
2018-06-11T02:40:15.695Z,17.70
2018-06-11T02:42:45.567Z,17.69
2018-06-11T02:45:14.677Z,17.67
2018-06-11T02:47:43.779Z,17.66
2018-06-11T02:50:12.832Z,17.64
2018-06-11T02:52:41.928Z,17.56
2018-06-11T02:55:11.699Z,17.39
2018-06-11T02:57:46.956Z,17.22
2018-06-11T03:00:16.074Z,17.09
2018-06-11T03:02:45.835Z,17.04
2018-06-11T03:05:15.804Z,17.09
2018-06-11T03:07:45.919Z,17.19
2018-06-11T03:10:15.866Z,17.23
2018-06-11T03:12:46.042Z,17.25
2018-06-11T03:15:16.000Z,17.28
2018-06-11T03:17:46.045Z,17.32
2018-06-11T03:20:16.001Z,17.33
2018-06-11T03:22:46.199Z,17.33
2018-06-11T03:25:19.473Z,17.37
2018-06-11T03:27:48.644Z,17.40
2018-06-11T03:30:24.542Z,17.38
2018-06-11T03:32:53.807Z,17.42
2018-06-11T03:35:22.948Z,17.48
2018-06-11T03:37:52.127Z,17.51
2018-06-11T03:40:21.285Z,17.49
2018-06-11T03:42:50.405Z,17.52
2018-06-11T03:45:19.529Z,17.55
2018-06-11T03:47:48.697Z,17.56
2018-06-11T03:50:17.933Z,17.58
2018-06-11T03:52:47.091Z,17.60
2018-06-11T03:55:19.343Z,17.51
2018-06-11T03:57:48.611Z,17.55
2018-06-11T04:00:17.679Z,17.60
2018-06-11T04:02:46.818Z,17.63
2018-06-11T04:05:16.911Z,17.66
2018-06-11T04:07:46.311Z,17.73
2018-06-11T04:10:16.397Z,17.76
2018-06-11T04:12:46.371Z,17.83
2018-06-11T04:15:16.349Z,17.87
2018-06-11T04:17:46.265Z,17.91
2018-06-11T04:20:16.882Z,17.95
2018-06-11T04:22:46.444Z,17.99
2018-06-11T04:25:16.295Z,18.07
2018-06-11T04:27:46.503Z,18.10
2018-06-11T04:30:16.343Z,18.01
2018-06-11T04:32:46.435Z,17.99
2018-06-11T04:35:16.427Z,18.00
2018-06-11T04:37:46.437Z,18.03
2018-06-11T04:40:16.524Z,18.05
2018-06-11T04:42:46.517Z,18.08
2018-06-11T04:45:16.490Z,18.12
2018-06-11T04:47:46.504Z,18.21
2018-06-11T04:50:17.237Z,18.23
2018-06-11T04:52:46.489Z,18.26
2018-06-11T04:55:16.594Z,18.27
2018-06-11T04:57:46.599Z,18.30
2018-06-11T05:00:16.594Z,18.36
2018-06-11T05:02:46.616Z,18.42
2018-06-11T05:05:16.615Z,18.45
2018-06-11T05:07:46.602Z,18.52
2018-06-11T05:10:22.605Z,18.60
2018-06-11T05:12:51.700Z,18.69
2018-06-11T05:15:21.905Z,18.77
2018-06-11T05:17:51.046Z,18.79
2018-06-11T05:20:20.194Z,18.85
2018-06-11T05:22:49.326Z,18.90
2018-06-11T05:25:19.619Z,19.00
2018-06-11T05:27:48.843Z,19.05
2018-06-11T05:32:51.712Z,19.20
2018-06-11T05:35:20.879Z,19.27
2018-06-11T05:37:50.128Z,19.31
2018-06-11T05:40:19.378Z,19.35
2018-06-11T05:42:48.519Z,19.40
2018-06-11T05:45:17.708Z,19.47
2018-06-11T05:47:46.869Z,19.52
2018-06-11T05:50:16.912Z,19.57
2018-06-11T05:52:46.943Z,19.62
2018-06-11T05:55:18.658Z,19.65
2018-06-11T05:57:47.913Z,19.71
2018-06-11T06:00:18.044Z,19.80
2018-06-11T06:02:47.236Z,19.91
2018-06-11T06:05:17.124Z,20.01
2018-06-11T06:07:47.048Z,20.14
2018-06-11T06:10:17.093Z,20.24
2018-06-11T06:12:47.052Z,20.36
2018-06-11T06:15:17.089Z,20.44
2018-06-11T06:17:47.171Z,20.51
2018-06-11T06:20:22.768Z,20.60
2018-06-11T06:22:52.228Z,20.75
2018-06-11T06:25:35.403Z,20.90
2018-06-11T06:28:04.684Z,21.02
2018-06-11T06:30:36.992Z,21.13
2018-06-11T06:33:06.248Z,21.22
2018-06-11T06:35:35.834Z,21.31
2018-06-11T06:38:04.942Z,21.37
2018-06-11T06:40:34.073Z,21.36
2018-06-11T06:43:03.267Z,21.41
2018-06-11T06:45:32.410Z,21.51
2018-06-11T06:48:01.503Z,21.63
2018-06-11T06:50:30.616Z,21.71
2018-06-11T06:52:59.832Z,21.78
2018-06-11T06:55:29.013Z,21.84
2018-06-11T06:57:58.068Z,21.85
2018-06-11T07:00:27.171Z,21.91
2018-06-11T07:02:56.393Z,21.97
2018-06-11T07:05:25.482Z,22.08
2018-06-11T07:07:54.573Z,22.17
2018-06-11T07:10:23.834Z,22.24
2018-06-11T07:12:52.972Z,22.25
2018-06-11T07:15:22.063Z,22.25
2018-06-11T07:17:51.221Z,22.39
2018-06-11T07:20:20.411Z,22.48
2018-06-11T07:22:49.586Z,22.58
2018-06-11T07:25:22.844Z,22.65
2018-06-11T07:27:52.075Z,22.69
2018-06-11T07:30:21.225Z,22.76
2018-06-11T07:32:51.899Z,22.85
2018-06-11T07:35:20.984Z,22.95
2018-06-11T07:37:50.213Z,23.05
2018-06-11T07:40:19.345Z,23.08
2018-06-11T07:42:48.523Z,23.17
2018-06-11T07:45:17.710Z,23.22
2018-06-11T07:47:47.833Z,23.27
2018-06-11T07:50:17.685Z,23.36
2018-06-11T07:52:47.952Z,23.45
2018-06-11T07:55:17.789Z,23.55
2018-06-11T07:57:47.704Z,23.67
2018-06-11T08:00:17.736Z,23.72
2018-06-11T08:02:47.813Z,23.77
2018-06-11T08:05:18.308Z,23.86
2018-06-11T08:07:47.950Z,23.92
2018-06-11T08:10:17.841Z,23.99
2018-06-11T08:12:47.863Z,24.11
2018-06-11T08:15:19.593Z,24.30
2018-06-11T08:17:48.844Z,24.48
2018-06-11T08:20:17.967Z,24.60
2018-06-11T08:22:47.918Z,24.60
2018-06-11T08:25:18.114Z,24.65
2018-06-11T08:27:47.985Z,24.75
2018-06-11T08:30:21.849Z,24.83
2018-06-11T08:32:50.971Z,24.79
2018-06-11T08:35:20.140Z,24.84
2018-06-11T08:37:49.303Z,24.98
2018-06-11T08:40:18.474Z,25.05
2018-06-11T08:42:48.466Z,25.15
2018-06-11T08:45:18.189Z,25.18
2018-06-11T08:47:48.131Z,25.27
2018-06-11T08:50:18.161Z,25.31
2018-06-11T08:52:48.254Z,25.33
2018-06-11T08:55:18.225Z,25.39
2018-06-11T08:57:48.293Z,25.42
2018-06-11T09:00:21.947Z,25.38
2018-06-11T09:02:51.086Z,25.54
2018-06-11T09:05:20.219Z,25.63
2018-06-11T09:07:49.327Z,25.76
2018-06-11T09:10:18.488Z,25.78
2018-06-11T09:12:48.478Z,25.94
2018-06-11T09:15:18.276Z,25.95
2018-06-11T09:17:48.420Z,26.01
2018-06-11T09:20:18.350Z,25.96
2018-06-11T09:22:48.348Z,26.01
2018-06-11T09:25:18.417Z,26.02
2018-06-11T09:27:48.451Z,26.11
2018-06-11T09:30:21.649Z,26.28
2018-06-11T09:32:50.805Z,26.29
2018-06-11T09:35:19.977Z,26.42
2018-06-11T09:37:49.166Z,26.54
2018-06-11T09:40:19.408Z,26.66
2018-06-11T09:42:48.624Z,26.75
2018-06-11T09:45:18.458Z,26.79
2018-06-11T09:47:48.522Z,26.90
2018-06-11T09:50:18.559Z,26.94
2018-06-11T09:52:48.556Z,26.92
2018-06-11T09:55:18.524Z,27.01
2018-06-11T09:57:48.695Z,27.03
2018-06-11T10:00:23.722Z,27.10
2018-06-11T10:02:53.406Z,27.14
2018-06-11T10:05:29.105Z,27.32
2018-06-11T10:07:58.187Z,27.41
2018-06-11T10:10:27.373Z,27.43
2018-06-11T10:12:56.598Z,27.56
2018-06-11T10:15:25.696Z,27.63
2018-06-11T10:17:54.885Z,27.71
2018-06-11T10:20:24.076Z,27.82
2018-06-11T10:22:53.163Z,27.78
2018-06-11T10:25:22.368Z,27.71
2018-06-11T10:27:51.468Z,27.68
2018-06-11T10:30:20.551Z,27.71
2018-06-11T10:32:49.654Z,27.85
2018-06-11T10:35:18.922Z,27.97
2018-06-11T10:37:48.853Z,28.14
2018-06-11T10:40:18.868Z,28.31
2018-06-11T10:42:48.988Z,28.38
2018-06-11T10:45:19.096Z,28.51
2018-06-11T10:47:49.129Z,28.61
2018-06-11T10:50:26.169Z,28.73
2018-06-11T10:52:55.430Z,28.91
2018-06-11T10:55:24.523Z,29.01
2018-06-11T10:57:53.603Z,29.01
2018-06-11T11:00:23.967Z,29.13
2018-06-11T11:02:53.119Z,29.06
2018-06-11T11:05:22.327Z,28.95
2018-06-11T11:07:51.488Z,28.87
2018-06-11T11:10:20.610Z,28.91
2018-06-11T11:12:49.779Z,28.91
2018-06-11T11:15:19.294Z,28.90
2018-06-11T11:17:49.266Z,28.88
2018-06-11T11:20:19.245Z,28.98
2018-06-11T11:22:49.326Z,29.10
2018-06-11T11:25:19.252Z,28.88
2018-06-11T11:27:49.380Z,28.68
2018-06-11T11:30:19.280Z,28.71
2018-06-11T11:32:49.308Z,28.72
2018-06-11T11:35:19.418Z,28.77
2018-06-11T11:37:49.524Z,28.97
2018-06-11T11:40:19.444Z,29.12
2018-06-11T11:42:49.530Z,29.28
2018-06-11T11:45:19.526Z,29.44
2018-06-11T11:47:49.542Z,29.77
2018-06-11T11:50:19.429Z,29.89
2018-06-11T11:52:49.549Z,29.85
2018-06-11T11:55:19.550Z,29.78
2018-06-11T11:57:49.496Z,29.71
2018-06-11T12:00:23.133Z,29.46
2018-06-11T12:02:52.341Z,29.45
2018-06-11T12:05:21.478Z,29.51
2018-06-11T12:07:50.596Z,29.43
2018-06-11T12:10:19.774Z,29.53
2018-06-11T12:12:49.636Z,29.49
2018-06-11T12:15:21.184Z,29.53
2018-06-11T12:17:50.280Z,29.63
2018-06-11T12:20:23.080Z,29.68
2018-06-11T12:22:52.162Z,29.72
2018-06-11T12:25:21.467Z,29.81
2018-06-11T12:27:50.715Z,29.98
2018-06-11T12:30:19.972Z,30.19
2018-06-11T12:32:50.076Z,30.35
2018-06-11T12:35:19.848Z,30.54
2018-06-11T12:37:50.032Z,30.73
2018-06-11T12:40:20.045Z,30.77
2018-06-11T12:42:49.980Z,30.73
2018-06-11T12:45:20.153Z,30.81
2018-06-11T12:47:50.119Z,30.76
2018-06-11T12:50:20.115Z,30.88
2018-06-11T12:52:50.174Z,31.03
2018-06-11T12:55:20.160Z,30.99
2018-06-11T12:57:50.147Z,31.11
2018-06-11T13:00:20.202Z,30.98
2018-06-11T13:02:50.176Z,30.91
2018-06-11T13:05:21.623Z,30.83
2018-06-11T13:07:50.729Z,31.04
2018-06-11T13:10:20.230Z,31.04
2018-06-11T13:12:50.398Z,31.15
2018-06-11T13:15:20.241Z,31.25
2018-06-11T13:17:53.532Z,31.20
2018-06-11T13:20:22.701Z,31.07
2018-06-11T13:22:51.960Z,31.01
2018-06-11T13:25:21.092Z,30.95
2018-06-11T13:27:50.718Z,30.91
2018-06-11T13:30:20.528Z,30.94
2018-06-11T13:32:50.565Z,30.94
2018-06-11T13:35:20.611Z,30.90
2018-06-11T13:37:50.637Z,30.85
2018-06-11T13:40:20.655Z,30.67
2018-06-11T13:42:50.605Z,30.58
2018-06-11T13:45:20.643Z,30.55
2018-06-11T13:47:50.872Z,30.68
2018-06-11T13:50:21.043Z,30.79
2018-06-11T13:52:50.790Z,30.85
2018-06-11T13:55:21.345Z,31.01
2018-06-11T13:57:50.944Z,31.13
2018-06-11T14:02:54.644Z,31.02
2018-06-11T14:05:23.797Z,31.09
2018-06-11T14:07:52.986Z,31.07
2018-06-11T14:10:22.090Z,31.00
2018-06-11T14:12:51.228Z,30.74
2018-06-11T14:15:20.961Z,30.58
2018-06-11T14:17:51.854Z,30.44
2018-06-11T14:20:22.498Z,30.45
2018-06-11T14:22:52.221Z,30.51
2018-06-11T14:25:21.395Z,30.55
2018-06-11T14:27:50.573Z,30.45
2018-06-11T14:30:19.766Z,30.43
2018-06-11T14:32:48.936Z,30.42
2018-06-11T14:35:18.139Z,30.35
2018-06-11T14:37:47.308Z,30.22
2018-06-11T14:40:16.959Z,30.19
2018-06-11T14:42:46.445Z,30.09
2018-06-11T14:45:15.613Z,30.12
2018-06-11T14:47:44.736Z,30.16
2018-06-11T14:50:13.857Z,30.18
2018-06-11T14:52:43.659Z,30.14
2018-06-11T14:55:12.865Z,30.14
2018-06-11T14:57:45.313Z,30.20
2018-06-11T15:00:16.346Z,30.24
2018-06-11T15:02:45.416Z,30.15
2018-06-11T15:05:14.532Z,30.07
2018-06-11T15:07:43.661Z,30.08
2018-06-11T15:10:13.020Z,30.29
2018-06-11T15:12:42.382Z,30.66
2018-06-11T15:15:11.514Z,31.15
2018-06-11T15:17:46.081Z,31.83
2018-06-11T15:20:15.213Z,32.15
2018-06-11T15:22:45.114Z,32.35
2018-06-11T15:25:14.306Z,32.52
2018-06-11T15:27:43.608Z,32.78
2018-06-11T15:30:12.717Z,32.71
2018-06-11T15:32:43.324Z,32.35
2018-06-11T15:35:12.406Z,31.94
2018-06-11T15:37:41.493Z,31.47
2018-06-11T15:40:10.744Z,30.91
2018-06-11T15:42:39.905Z,30.61
2018-06-11T15:45:09.615Z,30.44
2018-06-11T15:47:38.899Z,30.33
2018-06-11T15:50:08.114Z,30.23
2018-06-11T15:52:37.504Z,30.11
2018-06-11T15:55:06.689Z,30.02
2018-06-11T15:57:35.812Z,29.97
2018-06-11T16:00:05.100Z,29.89
2018-06-11T16:02:37.517Z,29.76
2018-06-11T16:05:08.658Z,29.49
2018-06-11T16:07:37.816Z,29.33
2018-06-11T16:10:07.000Z,29.18
2018-06-11T16:12:36.131Z,28.99
2018-06-11T16:15:05.314Z,28.81
2018-06-11T16:17:34.412Z,28.62
2018-06-11T16:20:03.615Z,28.41
2018-06-11T16:22:32.719Z,28.26
2018-06-11T16:25:01.878Z,28.16
2018-06-11T16:27:30.963Z,28.06
2018-06-11T16:30:00.073Z,27.95
2018-06-11T16:32:29.278Z,27.80
2018-06-11T16:34:58.437Z,27.69
2018-06-11T16:37:27.591Z,27.58
2018-06-11T16:39:56.761Z,27.49
2018-06-11T16:42:25.928Z,27.42
2018-06-11T16:44:55.129Z,27.42
2018-06-11T16:47:28.273Z,27.36
2018-06-11T16:49:57.470Z,27.30
2018-06-11T16:52:27.706Z,27.23
2018-06-11T16:54:56.851Z,27.18
2018-06-11T16:57:25.946Z,27.12
2018-06-11T16:59:55.830Z,27.05
2018-06-11T17:02:24.988Z,26.94
2018-06-11T17:04:54.147Z,26.78
2018-06-11T17:07:23.356Z,26.70
2018-06-11T17:09:52.981Z,26.61
2018-06-11T17:12:22.923Z,26.54
2018-06-11T17:14:53.008Z,26.46
2018-06-11T17:17:24.898Z,26.41
2018-06-11T17:19:54.090Z,26.36
2018-06-11T17:22:24.143Z,26.34
2018-06-11T17:24:53.294Z,26.27
2018-06-11T17:27:26.391Z,26.23
2018-06-11T17:29:55.521Z,26.21
2018-06-11T17:32:24.669Z,26.20
2018-06-11T17:34:53.826Z,26.18
2018-06-11T17:37:23.425Z,26.23
2018-06-11T17:39:53.388Z,26.18
2018-06-11T17:42:23.428Z,26.15
2018-06-11T17:44:54.296Z,26.07
2018-06-11T17:47:24.409Z,25.98
2018-06-11T17:49:53.610Z,25.85
2018-06-11T17:52:23.448Z,25.71
2018-06-11T17:54:53.519Z,25.41
2018-06-11T17:57:23.471Z,24.56
2018-06-11T17:59:53.527Z,23.78
2018-06-11T18:02:23.668Z,23.32
2018-06-11T18:04:54.601Z,23.10
2018-06-11T18:07:23.816Z,22.95
2018-06-11T18:09:53.730Z,22.92
2018-06-11T18:12:23.805Z,22.92
2018-06-11T18:14:53.752Z,22.98
2018-06-11T18:17:25.602Z,23.01
2018-06-11T18:19:54.921Z,23.02
2018-06-11T18:22:27.546Z,22.90
2018-06-11T18:24:56.752Z,22.59
2018-06-11T18:27:26.197Z,22.44
2018-06-11T18:29:57.012Z,22.32
2018-06-11T18:32:26.224Z,21.95
2018-06-11T18:34:58.251Z,21.70
2018-06-11T18:37:27.429Z,21.58
2018-06-11T18:39:56.719Z,21.65
2018-06-11T18:42:26.078Z,21.69
2018-06-11T18:44:55.527Z,21.71
2018-06-11T18:47:24.929Z,21.70
2018-06-11T18:49:54.177Z,21.66
2018-06-11T18:52:24.170Z,21.54
2018-06-11T18:54:57.646Z,21.53
2018-06-11T18:57:26.999Z,21.50
2018-06-11T18:59:56.390Z,21.25
2018-06-11T19:02:25.619Z,21.19
2018-06-11T19:04:54.762Z,21.21
2018-06-11T19:07:24.478Z,21.20
2018-06-11T19:09:54.722Z,21.20
2018-06-11T19:12:24.561Z,21.19
2018-06-11T19:14:54.717Z,21.18
2018-06-11T19:17:24.376Z,21.19
2018-06-11T19:19:58.348Z,21.16
2018-06-11T19:22:27.577Z,21.11
2018-06-11T19:24:56.815Z,21.09
2018-06-11T19:27:25.989Z,21.08
2018-06-11T19:29:55.165Z,21.08
2018-06-11T19:32:25.077Z,21.04
2018-06-11T19:34:55.117Z,21.07
2018-06-11T19:37:25.684Z,21.06
2018-06-11T19:39:55.412Z,21.03
2018-06-11T19:42:24.755Z,21.01
2018-06-11T19:44:53.903Z,21.00
2018-06-11T19:47:27.816Z,21.00
2018-06-11T19:49:57.308Z,20.99
2018-06-11T19:52:26.593Z,20.96
2018-06-11T19:55:03.311Z,20.90
2018-06-11T19:57:37.968Z,20.87
2018-06-11T20:00:07.202Z,20.87
2018-06-11T20:02:36.452Z,20.84
2018-06-11T20:05:05.668Z,20.80
2018-06-11T20:07:34.793Z,20.80
2018-06-11T20:10:04.038Z,20.83
2018-06-11T20:12:33.816Z,20.85
2018-06-11T20:15:02.997Z,20.84
2018-06-11T20:17:32.147Z,20.77
2018-06-11T20:20:01.267Z,20.72
2018-06-11T20:22:30.537Z,20.75
2018-06-11T20:24:59.757Z,20.74
2018-06-11T20:27:29.099Z,20.68
2018-06-11T20:29:58.854Z,20.63
2018-06-11T20:32:28.479Z,20.58
2018-06-11T20:34:57.543Z,20.58
2018-06-11T20:37:26.734Z,20.52
2018-06-11T20:39:55.982Z,20.54
2018-06-11T20:42:25.226Z,20.57
2018-06-11T20:44:55.424Z,20.55
2018-06-11T20:47:25.337Z,20.56
2018-06-11T20:49:55.405Z,20.53
2018-06-11T20:52:25.403Z,20.52
2018-06-11T20:54:55.553Z,20.51
2018-06-11T20:57:25.440Z,20.52
2018-06-11T20:59:55.536Z,20.52
2018-06-11T21:02:27.347Z,20.55
2018-06-11T21:04:56.507Z,20.59
2018-06-11T21:07:25.618Z,20.61
2018-06-11T21:09:55.508Z,20.59
2018-06-11T21:12:25.529Z,20.53
2018-06-11T21:14:55.565Z,20.40
2018-06-11T21:17:25.715Z,20.32
2018-06-11T21:19:55.642Z,20.35
2018-06-11T21:22:25.804Z,20.33
2018-06-11T21:24:55.695Z,20.26
2018-06-11T21:27:25.883Z,20.22
2018-06-11T21:29:55.935Z,20.18
2018-06-11T21:32:25.893Z,20.20
2018-06-11T21:34:55.814Z,20.18
2018-06-11T21:37:26.026Z,20.15
2018-06-11T21:39:55.945Z,20.10
2018-06-11T21:42:25.859Z,20.10
2018-06-11T21:44:55.887Z,20.08
2018-06-11T21:47:25.909Z,20.07
2018-06-11T21:49:55.999Z,20.07
2018-06-11T21:52:26.049Z,19.98
2018-06-11T21:54:56.036Z,19.93
2018-06-11T21:57:26.058Z,19.89
2018-06-11T21:59:56.181Z,19.82
2018-06-11T22:02:26.056Z,19.72
2018-06-11T22:04:56.098Z,19.72
2018-06-11T22:07:25.192Z,19.69
2018-06-11T22:09:54.445Z,19.67
2018-06-11T22:12:23.602Z,19.67
2018-06-11T22:14:54.710Z,19.67
2018-06-11T22:17:23.873Z,19.67
2018-06-11T22:19:53.076Z,19.65
2018-06-11T22:22:22.220Z,19.62
2018-06-11T22:24:51.461Z,19.59
2018-06-11T22:27:20.600Z,19.59
2018-06-11T22:29:49.689Z,19.61
2018-06-11T22:32:18.810Z,19.60
2018-06-11T22:34:47.963Z,19.60
2018-06-11T22:37:17.004Z,19.59
2018-06-11T22:39:46.074Z,19.55
2018-06-11T22:42:15.192Z,19.50
2018-06-11T22:44:44.306Z,19.46
2018-06-11T22:47:16.305Z,19.46
2018-06-11T22:49:45.450Z,19.44
2018-06-11T22:52:15.342Z,19.44
2018-06-11T22:54:48.356Z,19.42
2018-06-11T22:57:17.486Z,19.42
2018-06-11T22:59:46.594Z,19.44
2018-06-11T23:02:16.974Z,19.47
2018-06-11T23:04:46.078Z,19.49
2018-06-11T23:07:15.250Z,19.51
2018-06-11T23:09:44.566Z,19.52
2018-06-11T23:12:14.942Z,19.52
2018-06-11T23:14:44.276Z,19.49
2018-06-11T23:17:13.500Z,19.40
2018-06-11T23:19:42.672Z,19.40
2018-06-11T23:24:49.504Z,19.40
2018-06-11T23:27:18.697Z,19.34
2018-06-11T23:29:47.868Z,19.33
2018-06-11T23:32:17.050Z,19.32
2018-06-11T23:34:46.214Z,19.31
2018-06-11T23:37:18.978Z,19.31
2018-06-11T23:39:48.241Z,19.27
2018-06-11T23:42:17.366Z,19.21
2018-06-11T23:44:59.083Z,19.19
2018-06-11T23:47:28.438Z,19.23
2018-06-11T23:49:58.570Z,19.23
2018-06-11T23:52:28.588Z,19.31
2018-06-11T23:54:58.492Z,19.35
2018-06-11T23:57:28.620Z,19.37
2018-06-11T23:59:58.584Z,19.42
